Caribe Rosa — D5MR2 — position and weather

sailwx.info

Track history (hours):
 
Tides and Currents Weather Stations Pressure Air Temp Water Temp Dewpoint Dewpoint Depression Visibility Wind Speed Wind Dir Waves Ship Positions

Caribe Rosa

Last reported at 2018-Feb-20 00:55 UTC. Time now 2018-Feb-24 18:10 UTC.
Position N 27°50' W 097°04'.

Length 118 m; draft 6.4 m.

Type: Ship (hazmat cat A). MMSI: 636017776.

Date/timePositionNaut miles runAvg speedWind from/ knotsBaromVisibWave heightAir tempDewpointWater temp
2018-Feb-20 00:55N 27°50' W 097°04'512.0
2018-Feb-20 00:28N 27°48' W 096°59'3 5.8
2018-Feb-19 23:59N 27°48' W 096°56'0 0.0
2018-Feb-19 23:30N 27°48' W 096°56'0 0.0
2018-Feb-19 23:00N 27°48' W 096°56'0 0.0
2018-Feb-19 22:29N 27°48' W 096°56'0 0.1
2018-Feb-19 22:00N 27°48' W 096°56'3 6.5
2018-Feb-19 21:30N 27°45' W 096°53'612.5
2018-Feb-19 20:59N 27°43' W 096°46'612.5
2018-Feb-19 20:29N 27°40' W 096°40'612.5
2018-Feb-19 19:58N 27°37' W 096°33'612.5
2018-Feb-19 19:29N 27°34' W 096°27'612.4
2018-Feb-19 18:59N 27°31' W 096°21'612.5
2018-Feb-19 18:29N 27°28' W 096°15'612.6
2018-Feb-19 17:59N 27°25' W 096°09'612.2
2018-Feb-19 17:29N 27°19' W 096°07'  
2018-Feb-16 21:05N 19°13' W 096°08'0 0.0
2018-Feb-16 20:59N 19°13' W 096°08'0 0.0
2018-Feb-16 20:29N 19°13' W 096°08'1 1.3
2018-Feb-16 20:00N 19°12' W 096°08'4 7.9
2018-Feb-16 19:30N 19°11' W 096°04'2 4.3
2018-Feb-16 18:57N 19°10' W 096°02'0 0.0
2018-Feb-16 18:03N 19°10' W 096°02'0 0.0
2018-Feb-16 17:51N 19°10' W 096°02'0 0.0
2018-Feb-16 17:27N 19°10' W 096°02'0 0.0
2018-Feb-16 16:51N 19°10' W 096°02'0 0.0
2018-Feb-16 16:21N 19°10' W 096°02'0 0.0
2018-Feb-16 15:57N 19°10' W 096°02'0 0.1
2018-Feb-16 15:27N 19°10' W 096°02'0 0.0
2018-Feb-16 14:57N 19°10' W 096°02'0 0.0
2018-Feb-16 14:27N 19°10' W 096°02'0 0.0
2018-Feb-16 13:57N 19°10' W 096°02'0 0.0
2018-Feb-16 13:27N 19°10' W 096°02'0 0.0
2018-Feb-16 12:33N 19°10' W 096°02'0 0.0
2018-Feb-16 12:15N 19°10' W 096°02'0 0.1
2018-Feb-16 11:57N 19°10' W 096°02'0 0.0
2018-Feb-16 11:21N 19°10' W 096°02'0 0.0
2018-Feb-16 10:51N 19°10' W 096°02'0 0.0
2018-Feb-16 10:30N 19°10' W 096°02'0 0.6
2018-Feb-16 10:00N 19°10' W 096°02'4 8.5
2018-Feb-16 09:30N 19°15' W 096°01'611.5
2018-Feb-16 09:00N 19°20' W 096°00'510.8
2018-Feb-16 08:31N 19°26' W 096°00'  
2018-Feb-14 00:06N 29°14' W 094°33'311.2
2018-Feb-13 23:52N 29°16' W 094°35'21 9.0
2018-Feb-13 21:33N 29°30' W 094°52'110.4
2018-Feb-13 21:30N 29°31' W 094°53'510.7
2018-Feb-13 21:00N 29°35' W 094°56'510.8
2018-Feb-13 20:30N 29°40' W 094°59'5 9.1
2018-Feb-13 19:59N 29°44' W 095°02'4 0.2
2018-Feb-13 01:02N 29°45' W 095°06'0 6.4
2018-Feb-13 01:00N 29°46' W 095°05'5 7.8
2018-Feb-13 00:22N 29°42' W 095°01'410.6
2018-Feb-13 00:00N 29°40' W 094°58'612.0
2018-Feb-12 23:30N 29°34' W 094°55'23 0.8
2018-Feb-11 17:13N 29°19' W 094°36'0 0.0
2018-Feb-11 16:58N 29°19' W 094°36'0 0.0
2018-Feb-11 14:55N 29°19' W 094°36'0 0.0
2018-Feb-11 12:49N 29°19' W 094°36'0 0.0
2018-Feb-11 12:25N 29°19' W 094°36'13 0.6
2018-Feb-10 14:41N 29°10' W 094°25'510.7
2018-Feb-10 14:15N 29°06' W 094°25'  
Track history (hours):
 
Tides and Currents Weather Stations Pressure Air Temp Water Temp Dewpoint Dewpoint Depression Visibility Wind Speed Wind Dir Waves Ship Positions

Caribe Rosa

Last reported at 2018-Feb-20 00:55 UTC. Time now 2018-Feb-24 18:10 UTC.
Position N 27°50' W 097°04'.

Length 118 m; draft 6.4 m.

Type: Ship (hazmat cat A). MMSI: 636017776.

Date/timePositionNaut miles runAvg speedWind from/ knotsBaromVisibWave heightAir tempDewpointWater temp
2018-Feb-20 00:55N 27°50' W 097°04'512.0
2018-Feb-20 00:28N 27°48' W 096°59'3 5.8
2018-Feb-19 23:59N 27°48' W 096°56'0 0.0
2018-Feb-19 23:30N 27°48' W 096°56'0 0.0
2018-Feb-19 23:00N 27°48' W 096°56'0 0.0
2018-Feb-19 22:29N 27°48' W 096°56'0 0.1
2018-Feb-19 22:00N 27°48' W 096°56'3 6.5
2018-Feb-19 21:30N 27°45' W 096°53'612.5
2018-Feb-19 20:59N 27°43' W 096°46'612.5
2018-Feb-19 20:29N 27°40' W 096°40'612.5
2018-Feb-19 19:58N 27°37' W 096°33'612.5
2018-Feb-19 19:29N 27°34' W 096°27'612.4
2018-Feb-19 18:59N 27°31' W 096°21'612.5
2018-Feb-19 18:29N 27°28' W 096°15'612.6
2018-Feb-19 17:59N 27°25' W 096°09'612.2
2018-Feb-19 17:29N 27°19' W 096°07'  
2018-Feb-16 21:05N 19°13' W 096°08'0 0.0
2018-Feb-16 20:59N 19°13' W 096°08'0 0.0
2018-Feb-16 20:29N 19°13' W 096°08'1 1.3
2018-Feb-16 20:00N 19°12' W 096°08'4 7.9
2018-Feb-16 19:30N 19°11' W 096°04'2 4.3
2018-Feb-16 18:57N 19°10' W 096°02'0 0.0
2018-Feb-16 18:03N 19°10' W 096°02'0 0.0
2018-Feb-16 17:51N 19°10' W 096°02'0 0.0
2018-Feb-16 17:27N 19°10' W 096°02'0 0.0
2018-Feb-16 16:51N 19°10' W 096°02'0 0.0
2018-Feb-16 16:21N 19°10' W 096°02'0 0.0
2018-Feb-16 15:57N 19°10' W 096°02'0 0.1
2018-Feb-16 15:27N 19°10' W 096°02'0 0.0
2018-Feb-16 14:57N 19°10' W 096°02'0 0.0
2018-Feb-16 14:27N 19°10' W 096°02'0 0.0
2018-Feb-16 13:57N 19°10' W 096°02'0 0.0
2018-Feb-16 13:27N 19°10' W 096°02'0 0.0
2018-Feb-16 12:33N 19°10' W 096°02'0 0.0
2018-Feb-16 12:15N 19°10' W 096°02'0 0.1
2018-Feb-16 11:57N 19°10' W 096°02'0 0.0
2018-Feb-16 11:21N 19°10' W 096°02'0 0.0
2018-Feb-16 10:51N 19°10' W 096°02'0 0.0
2018-Feb-16 10:30N 19°10' W 096°02'0 0.6
2018-Feb-16 10:00N 19°10' W 096°02'4 8.5
2018-Feb-16 09:30N 19°15' W 096°01'611.5
2018-Feb-16 09:00N 19°20' W 096°00'510.8
2018-Feb-16 08:31N 19°26' W 096°00'  
2018-Feb-14 00:06N 29°14' W 094°33'311.2
2018-Feb-13 23:52N 29°16' W 094°35'21 9.0
2018-Feb-13 21:33N 29°30' W 094°52'110.4
2018-Feb-13 21:30N 29°31' W 094°53'510.7
2018-Feb-13 21:00N 29°35' W 094°56'510.8
2018-Feb-13 20:30N 29°40' W 094°59'5 9.1
2018-Feb-13 19:59N 29°44' W 095°02'4 0.2
2018-Feb-13 01:02N 29°45' W 095°06'0 6.4
2018-Feb-13 01:00N 29°46' W 095°05'5 7.8
2018-Feb-13 00:22N 29°42' W 095°01'410.6
2018-Feb-13 00:00N 29°40' W 094°58'612.0
2018-Feb-12 23:30N 29°34' W 094°55'23 0.8
2018-Feb-11 17:13N 29°19' W 094°36'0 0.0
2018-Feb-11 16:58N 29°19' W 094°36'0 0.0
2018-Feb-11 14:55N 29°19' W 094°36'0 0.0
2018-Feb-11 12:49N 29°19' W 094°36'0 0.0
2018-Feb-11 12:25N 29°19' W 094°36'13 0.6
2018-Feb-10 14:41N 29°10' W 094°25'510.7
2018-Feb-10 14:15N 29°06' W 094°25'  

Dump ship's entire track history